Time;durP1;ratioP1;P1;durP2;ratioP2;P2;SDS_P1;SDS_P2;PMS_P1;PMS_P2;Temp;Humidity;BMP_temperature;BMP_pressure;BME280_temperature;BME280_humidity;BME280_pressure;Samples;Min_cycle;Max_cycle;Signal;HPM_P1;HPM_P2
2022/07/20 00:00:33;;;;;;;0.00;0.00;;;23.50;61.80;;;;;;5088641;28;20048;-80
2022/07/20 00:03:03;;;;;;;0.00;0.00;;;23.50;62.10;;;;;;5072196;28;20089;-80
2022/07/20 00:05:29;;;;;;;0.00;0.00;;;23.40;61.50;;;;;;5089229;28;20068;-80
2022/07/20 00:07:55;;;;;;;0.00;0.00;;;23.40;60.70;;;;;;5088716;28;20060;-80
2022/07/20 00:13:05;;;;;;;0.00;0.00;;;23.30;62.20;;;;;;5089495;28;20045;-80
2022/07/20 00:15:31;;;;;;;0.00;0.00;;;23.30;61.90;;;;;;5038574;28;20111;-80
2022/07/20 00:17:56;;;;;;;0.00;0.00;;;23.30;62.40;;;;;;5088346;28;20056;-80
2022/07/20 00:20:22;;;;;;;0.00;0.00;;;23.20;61.70;;;;;;5088569;28;20141;-80
2022/07/20 00:22:48;;;;;;;0.00;0.00;;;23.20;62.40;;;;;;5071649;28;20041;-80
2022/07/20 00:25:13;;;;;;;0.00;0.00;;;23.20;62.60;;;;;;5071488;28;20049;-80
2022/07/20 00:27:39;;;;;;;0.00;0.00;;;23.10;62.40;;;;;;5054898;28;20047;-80
2022/07/20 00:30:05;;;;;;;0.08;0.00;;;23.10;63.10;;;;;;5071532;28;20139;-80
2022/07/20 00:32:39;;;;;;;0.00;0.00;;;23.00;62.80;;;;;;5088081;28;20057;-80
2022/07/20 00:35:10;;;;;;;0.40;0.10;;;23.00;62.70;;;;;;5038297;28;20045;-80
2022/07/20 00:37:35;;;;;;;0.05;0.00;;;22.90;62.20;;;;;;5088175;28;20037;-80
2022/07/20 00:40:03;;;;;;;0.00;0.00;;;22.90;63.50;;;;;;5088117;28;20052;-80
2022/07/20 00:42:28;;;;;;;0.10;0.03;;;22.90;62.40;;;;;;5054729;28;20056;-80
2022/07/20 00:44:54;;;;;;;0.00;0.00;;;22.80;63.00;;;;;;5088095;28;20037;-80
2022/07/20 00:47:20;;;;;;;0.10;0.00;;;22.80;64.60;;;;;;5088063;28;20053;-80
2022/07/20 00:49:45;;;;;;;0.20;0.17;;;22.70;63.90;;;;;;5071196;28;20057;-80
2022/07/20 00:52:12;;;;;;;0.00;0.00;;;22.70;63.90;;;;;;5070906;28;20059;-81
2022/07/20 00:54:39;;;;;;;0.00;0.00;;;22.60;66.10;;;;;;5087612;28;20049;-80
2022/07/20 00:57:05;;;;;;;0.28;0.05;;;22.60;66.40;;;;;;5087433;28;20053;-80
2022/07/20 00:59:31;;;;;;;0.00;0.00;;;22.50;65.50;;;;;;5088074;28;20137;-80
2022/07/20 01:01:57;;;;;;;0.00;0.00;;;22.40;64.60;;;;;;5088043;28;20052;-80
2022/07/20 01:04:23;;;;;;;0.00;0.00;;;22.40;65.40;;;;;;5087690;28;20052;-80
2022/07/20 01:06:49;;;;;;;0.25;0.10;;;22.40;64.30;;;;;;5070719;28;20412;-80
2022/07/20 01:09:18;;;;;;;0.00;0.00;;;22.40;64.50;;;;;;5070541;28;20503;-80
2022/07/20 01:11:44;;;;;;;0.00;0.00;;;22.40;65.00;;;;;;5087634;28;20128;-80
2022/07/20 01:14:13;;;;;;;0.00;0.00;;;22.30;66.50;;;;;;5087363;28;20128;-80
2022/07/20 01:16:39;;;;;;;0.00;0.00;;;22.20;64.90;;;;;;5070675;28;20045;-80
2022/07/20 01:19:06;;;;;;;0.03;0.00;;;22.30;66.00;;;;;;5087122;28;20469;-80
2022/07/20 01:21:33;;;;;;;0.00;0.00;;;22.20;63.70;;;;;;5087120;28;20655;-80
2022/07/20 01:23:58;;;;;;;0.10;0.10;;;22.30;63.70;;;;;;5086307;28;20492;-80
2022/07/20 01:26:24;;;;;;;0.00;0.00;;;22.30;64.40;;;;;;5070086;28;20044;-80
2022/07/20 01:28:50;;;;;;;0.30;0.15;;;22.30;65.40;;;;;;5086731;28;20048;-80
2022/07/20 01:31:19;;;;;;;0.00;0.00;;;22.20;64.50;;;;;;5087348;28;20057;-80
2022/07/20 01:33:44;;;;;;;0.00;0.00;;;22.20;64.80;;;;;;5086719;28;20033;-80
2022/07/20 01:36:10;;;;;;;0.00;0.00;;;22.10;64.70;;;;;;5070135;28;20380;-80
2022/07/20 01:38:36;;;;;;;0.00;0.00;;;22.10;65.50;;;;;;5087102;28;20475;-80
2022/07/20 01:41:01;;;;;;;0.32;0.20;;;22.10;65.20;;;;;;5070150;28;20068;-80
2022/07/20 01:43:27;;;;;;;0.00;0.00;;;22.10;65.10;;;;;;5053160;28;20051;-80
2022/07/20 01:45:52;;;;;;;0.15;0.10;;;22.10;64.70;;;;;;5069769;28;20052;-80
2022/07/20 01:48:18;;;;;;;0.00;0.00;;;22.10;64.90;;;;;;5069999;28;20131;-80
2022/07/20 01:50:44;;;;;;;0.10;0.00;;;22.00;65.80;;;;;;5052900;28;20129;-80
2022/07/20 01:53:09;;;;;;;0.03;0.00;;;22.00;65.10;;;;;;5069399;28;20060;-80
2022/07/20 01:55:35;;;;;;;0.00;0.00;;;22.00;64.80;;;;;;5086847;28;20102;-80
2022/07/20 01:58:01;;;;;;;0.00;0.00;;;22.00;64.90;;;;;;5086449;28;20067;-80
2022/07/20 02:00:27;;;;;;;0.10;0.10;;;22.00;65.80;;;;;;5087165;28;20077;-80
2022/07/20 02:02:52;;;;;;;0.32;0.22;;;22.00;65.80;;;;;;5069926;28;20045;-80
2022/07/20 02:05:19;;;;;;;0.00;0.00;;;21.90;64.80;;;;;;5086484;28;20052;-79
2022/07/20 02:07:45;;;;;;;0.00;0.00;;;21.90;64.30;;;;;;5069725;28;20392;-79
2022/07/20 02:10:13;;;;;;;0.00;0.00;;;21.90;65.20;;;;;;5069849;28;20374;-79
2022/07/20 02:12:39;;;;;;;0.05;0.00;;;21.90;65.30;;;;;;5069717;28;20045;-80
2022/07/20 02:15:07;;;;;;;0.00;0.00;;;21.90;66.40;;;;;;5086566;28;20045;-79
2022/07/20 02:17:33;;;;;;;0.20;0.20;;;21.90;65.30;;;;;;5069245;28;20477;-79
2022/07/20 02:19:59;;;;;;;0.00;0.00;;;21.90;64.20;;;;;;5069565;28;20064;-79
2022/07/20 02:22:25;;;;;;;0.00;0.00;;;21.90;64.80;;;;;;5069472;28;20454;-79
2022/07/20 02:24:53;;;;;;;1.35;0.22;;;21.80;65.20;;;;;;5069275;28;20492;-80
2022/07/20 02:27:21;;;;;;;0.00;0.00;;;21.90;63.90;;;;;;5069381;28;20102;-80
2022/07/20 02:29:47;;;;;;;4.38;0.65;;;21.90;64.00;;;;;;5086357;28;20401;-79
2022/07/20 02:32:12;;;;;;;0.00;0.00;;;21.90;65.70;;;;;;5069403;28;20049;-79
2022/07/20 02:34:38;;;;;;;0.05;0.00;;;21.90;66.20;;;;;;5085552;28;20052;-79
2022/07/20 02:37:04;;;;;;;0.00;0.00;;;21.90;64.50;;;;;;5069361;28;20048;-79
2022/07/20 02:39:29;;;;;;;0.10;0.10;;;21.80;67.70;;;;;;5086570;28;20048;-79
2022/07/20 02:41:55;;;;;;;0.00;0.00;;;21.70;66.80;;;;;;5085862;28;20044;-79
2022/07/20 02:44:20;;;;;;;0.00;0.00;;;21.70;66.00;;;;;;5069423;28;20154;-79
2022/07/20 02:46:46;;;;;;;0.00;0.00;;;21.60;67.00;;;;;;5069196;28;20140;-80
2022/07/20 02:49:12;;;;;;;0.00;0.00;;;21.50;67.20;;;;;;5069255;28;20143;-79
2022/07/20 02:51:37;;;;;;;0.05;0.00;;;21.60;66.30;;;;;;5086248;28;20065;-79
2022/07/20 02:54:03;;;;;;;0.00;0.00;;;21.50;66.00;;;;;;5069104;28;20481;-79
2022/07/20 02:56:29;;;;;;;0.00;0.00;;;21.50;65.50;;;;;;5085977;28;20068;-79
2022/07/20 02:58:54;;;;;;;0.00;0.00;;;21.50;65.70;;;;;;5085429;28;20102;-79
2022/07/20 03:01:20;;;;;;;0.08;0.08;;;21.50;66.30;;;;;;5068747;28;20095;-79
2022/07/20 03:03:46;;;;;;;0.05;0.00;;;21.50;66.40;;;;;;5068779;28;20080;-79
2022/07/20 03:06:11;;;;;;;0.25;0.00;;;21.50;66.60;;;;;;5086584;28;20052;-79
2022/07/20 03:08:37;;;;;;;0.00;0.00;;;21.40;67.90;;;;;;5086110;28;20044;-79
2022/07/20 03:11:03;;;;;;;0.00;0.00;;;21.30;67.50;;;;;;5085879;28;20129;-79
2022/07/20 03:13:28;;;;;;;0.00;0.00;;;21.40;66.70;;;;;;5052423;28;20126;-79
2022/07/20 03:15:54;;;;;;;0.00;0.00;;;21.30;68.30;;;;;;5069198;28;20048;-79
2022/07/20 03:18:20;;;;;;;0.00;0.00;;;21.20;67.30;;;;;;5068854;28;20037;-79
2022/07/20 03:20:45;;;;;;;0.00;0.00;;;21.20;69.50;;;;;;5085870;28;20049;-79
2022/07/20 03:23:11;;;;;;;0.00;0.00;;;21.20;66.70;;;;;;5069002;28;20068;-79
2022/07/20 03:25:37;;;;;;;0.17;0.03;;;21.20;67.80;;;;;;5068959;28;20049;-79
2022/07/20 03:28:02;;;;;;;0.00;0.00;;;21.10;67.90;;;;;;5068773;28;20087;-79
2022/07/20 03:30:29;;;;;;;0.10;0.00;;;21.00;68.10;;;;;;5068608;28;20106;-79
2022/07/20 03:32:55;;;;;;;0.00;0.00;;;21.00;68.10;;;;;;5085279;28;20043;-79
2022/07/20 03:35:22;;;;;;;0.00;0.00;;;21.00;69.10;;;;;;5068340;28;20136;-79
2022/07/20 03:37:48;;;;;;;0.00;0.00;;;20.90;68.10;;;;;;5068548;28;20508;-79
2022/07/20 03:40:13;;;;;;;0.00;0.00;;;20.90;69.70;;;;;;5085843;28;20132;-79
2022/07/20 03:42:39;;;;;;;0.00;0.00;;;20.90;68.10;;;;;;5068946;28;20052;-79
2022/07/20 03:45:06;;;;;;;0.00;0.00;;;20.80;69.00;;;;;;5068821;28;20451;-79
2022/07/20 03:47:33;;;;;;;0.00;0.00;;;20.90;69.40;;;;;;5089155;28;20048;-79
2022/07/20 03:50:02;;;;;;;0.00;0.00;;;20.80;69.50;;;;;;5072323;28;20049;-80
2022/07/20 03:52:28;;;;;;;0.05;0.00;;;20.80;68.60;;;;;;5088898;28;20501;-80
2022/07/20 03:54:54;;;;;;;0.00;0.00;;;20.80;68.90;;;;;;5088723;28;20082;-79
2022/07/20 03:57:19;;;;;;;0.00;0.00;;;20.80;69.70;;;;;;5088996;28;20055;-80
2022/07/20 03:59:45;;;;;;;0.00;0.00;;;20.80;70.40;;;;;;5072212;28;20061;-79
2022/07/20 04:02:11;;;;;;;0.00;0.00;;;20.70;70.60;;;;;;5088888;28;20207;-79
2022/07/20 04:04:36;;;;;;;0.00;0.00;;;20.70;70.20;;;;;;5088350;28;20045;-78
2022/07/20 04:07:02;;;;;;;0.00;0.00;;;20.80;72.70;;;;;;5072102;28;20053;-79
2022/07/20 04:12:17;;;;;;;0.00;0.00;;;20.70;72.60;;;;;;5088978;28;20084;-79
2022/07/20 04:14:44;;;;;;;0.00;0.00;;;20.80;73.90;;;;;;5071816;28;20056;-78
2022/07/20 04:17:09;;;;;;;0.00;0.00;;;20.80;72.60;;;;;;5088853;28;20040;-78
2022/07/20 04:19:36;;;;;;;0.00;0.00;;;20.70;72.60;;;;;;5089223;28;20133;-79
2022/07/20 04:22:02;;;;;;;0.00;0.00;;;20.70;72.30;;;;;;5088752;28;20048;-79
2022/07/20 04:24:28;;;;;;;0.00;0.00;;;20.70;72.80;;;;;;5088702;28;20056;-79
2022/07/20 04:26:54;;;;;;;0.15;0.10;;;20.70;73.10;;;;;;5071571;28;20053;-79
2022/07/20 04:29:23;;;;;;;0.00;0.00;;;20.70;72.80;;;;;;5071684;28;20106;-79
2022/07/20 04:31:49;;;;;;;0.00;0.00;;;20.70;73.60;;;;;;5071421;28;20049;-79
2022/07/20 04:34:15;;;;;;;0.30;0.00;;;20.60;73.70;;;;;;5088419;28;20102;-80
2022/07/20 04:36:41;;;;;;;0.00;0.00;;;20.70;74.80;;;;;;5071876;28;20477;-79
2022/07/20 04:39:06;;;;;;;0.10;0.10;;;20.70;72.10;;;;;;5071125;28;20037;-79
2022/07/20 04:41:32;;;;;;;0.00;0.00;;;20.80;73.00;;;;;;5071269;28;20479;-79
2022/07/20 04:43:58;;;;;;;0.00;0.00;;;20.80;72.80;;;;;;5088247;28;20056;-79
2022/07/20 04:46:23;;;;;;;0.00;0.00;;;20.80;71.80;;;;;;5088278;28;20041;-79
2022/07/20 04:48:49;;;;;;;0.00;0.00;;;20.80;73.80;;;;;;5088116;28;20175;-79
2022/07/20 04:51:15;;;;;;;0.00;0.00;;;20.80;74.10;;;;;;5071212;28;20477;-79
2022/07/20 04:53:40;;;;;;;0.00;0.00;;;20.80;74.90;;;;;;5070734;28;20512;-79
2022/07/20 04:56:09;;;;;;;0.00;0.00;;;20.80;74.90;;;;;;5087563;28;20045;-80
2022/07/20 04:58:36;;;;;;;0.00;0.00;;;20.90;73.40;;;;;;5086393;28;20045;-80
2022/07/20 05:01:01;;;;;;;0.10;0.00;;;20.90;75.40;;;;;;5070766;28;20049;-80
2022/07/20 05:03:27;;;;;;;0.00;0.00;;;20.90;75.00;;;;;;5070893;28;20052;-79
2022/07/20 05:05:53;;;;;;;0.00;0.00;;;21.00;75.00;;;;;;5037769;28;20056;-79
2022/07/20 05:08:19;;;;;;;0.00;0.00;;;20.90;75.80;;;;;;5070868;28;20477;-79
2022/07/20 05:10:44;;;;;;;0.00;0.00;;;21.00;75.20;;;;;;5087647;28;20033;-80
2022/07/20 05:13:12;;;;;;;0.10;0.00;;;21.00;77.50;;;;;;5087097;28;20053;-80
2022/07/20 05:15:38;;;;;;;0.00;0.00;;;21.00;76.80;;;;;;5087577;28;20047;-79
2022/07/20 05:18:04;;;;;;;0.00;0.00;;;21.00;77.10;;;;;;5070343;28;20049;-79
2022/07/20 05:20:29;;;;;;;0.03;0.03;;;21.10;77.70;;;;;;5087231;28;20049;-79
2022/07/20 05:22:55;;;;;;;0.00;0.00;;;21.10;78.00;;;;;;5069910;28;20503;-80
2022/07/20 05:25:21;;;;;;;0.00;0.00;;;21.10;78.00;;;;;;5086867;28;20100;-79
2022/07/20 05:27:46;;;;;;;0.00;0.00;;;21.20;77.60;;;;;;5087425;28;20428;-79
2022/07/20 05:30:12;;;;;;;0.00;0.00;;;21.20;76.40;;;;;;5070392;28;20051;-79
2022/07/20 05:32:38;;;;;;;0.00;0.00;;;21.30;76.90;;;;;;5069763;28;20064;-80
2022/07/20 05:35:05;;;;;;;0.00;0.00;;;21.40;75.30;;;;;;5070049;28;20044;-80
2022/07/20 05:37:31;;;;;;;0.25;0.00;;;21.40;77.50;;;;;;5070285;28;20052;-80
2022/07/20 05:39:56;;;;;;;0.00;0.00;;;21.60;77.60;;;;;;5087718;28;20040;-80
2022/07/20 05:42:22;;;;;;;0.00;0.00;;;21.80;78.40;;;;;;5087155;28;20370;-80
2022/07/20 05:44:48;;;;;;;8.90;0.52;;;22.10;76.80;;;;;;5070820;28;20361;-80
2022/07/20 05:47:14;;;;;;;0.00;0.00;;;22.50;75.70;;;;;;5086890;28;20044;-81
2022/07/20 05:49:39;;;;;;;0.10;0.00;;;22.70;75.20;;;;;;5086861;28;20385;-81
2022/07/20 05:52:05;;;;;;;1.92;0.22;;;22.90;72.70;;;;;;5087062;28;20076;-80
2022/07/20 05:54:31;;;;;;;0.05;0.05;;;22.90;74.30;;;;;;5069992;28;20459;-80
2022/07/20 05:56:57;;;;;;;0.00;0.00;;;22.90;73.20;;;;;;5070517;28;20048;-79
2022/07/20 05:59:23;;;;;;;0.00;0.00;;;22.90;75.10;;;;;;5086650;28;20552;-80
2022/07/20 06:01:48;;;;;;;0.00;0.00;;;22.90;72.90;;;;;;5036754;28;20045;-80
2022/07/20 06:04:14;;;;;;;0.00;0.00;;;22.90;75.30;;;;;;5069662;28;20107;-80
2022/07/20 06:06:41;;;;;;;0.10;0.10;;;22.90;73.70;;;;;;5069603;28;20045;-80
2022/07/20 06:09:07;;;;;;;0.00;0.00;;;22.90;75.00;;;;;;5069458;28;20045;-80
2022/07/20 06:11:34;;;;;;;0.10;0.00;;;22.90;74.00;;;;;;5069657;28;20049;-80
2022/07/20 06:14:00;;;;;;;0.00;0.00;;;23.00;74.50;;;;;;5069719;28;20044;-80
2022/07/20 06:16:27;;;;;;;0.28;0.05;;;23.00;74.80;;;;;;5086576;28;20179;-80
2022/07/20 06:18:52;;;;;;;0.00;0.00;;;23.00;74.70;;;;;;5086353;28;20098;-80
2022/07/20 06:21:18;;;;;;;0.00;0.00;;;23.00;74.40;;;;;;5086389;28;20481;-79
2022/07/20 06:23:44;;;;;;;1.13;0.22;;;23.20;75.10;;;;;;5086009;28;20041;-80
2022/07/20 06:26:10;;;;;;;0.00;0.00;;;23.20;75.00;;;;;;5069544;28;20079;-80
2022/07/20 06:28:36;;;;;;;0.00;0.00;;;23.30;73.10;;;;;;5069430;28;20469;-80
2022/07/20 06:31:03;;;;;;;0.03;0.03;;;23.40;73.70;;;;;;5086191;28;20052;-80
2022/07/20 06:33:28;;;;;;;0.10;0.10;;;23.60;75.40;;;;;;5086284;28;20060;-80
2022/07/20 06:35:54;;;;;;;0.00;0.00;;;23.70;74.30;;;;;;5085990;28;20400;-80
2022/07/20 06:38:19;;;;;;;0.70;0.20;;;23.80;71.80;;;;;;5085853;28;20094;-80
2022/07/20 06:40:45;;;;;;;0.35;0.00;;;24.10;71.10;;;;;;5086002;28;20037;-80
2022/07/20 06:43:11;;;;;;;0.90;0.25;;;24.10;69.10;;;;;;5070003;28;20052;-79
2022/07/20 06:45:36;;;;;;;0.00;0.00;;;24.30;69.20;;;;;;5086422;28;20136;-80
2022/07/20 06:48:03;;;;;;;0.00;0.00;;;24.40;69.60;;;;;;5086345;28;20139;-80
2022/07/20 06:50:28;;;;;;;0.00;0.00;;;24.50;67.20;;;;;;5069486;28;20541;-80
2022/07/20 06:52:55;;;;;;;0.05;0.05;;;24.50;67.40;;;;;;5069073;28;20053;-80
2022/07/20 06:55:22;;;;;;;0.00;0.00;;;24.60;68.70;;;;;;5086550;28;20045;-80
2022/07/20 06:57:47;;;;;;;0.00;0.00;;;24.70;66.40;;;;;;5085838;28;20060;-80
2022/07/20 07:00:13;;;;;;;0.00;0.00;;;24.70;67.50;;;;;;5069614;28;20045;-80
2022/07/20 07:02:39;;;;;;;0.05;0.00;;;24.80;68.40;;;;;;5069667;28;20052;-80
2022/07/20 07:05:06;;;;;;;0.00;0.00;;;24.90;69.20;;;;;;5069666;28;20194;-80
2022/07/20 07:07:32;;;;;;;0.00;0.00;;;24.90;68.30;;;;;;5069725;28;20052;-80
2022/07/20 07:09:57;;;;;;;0.00;0.00;;;25.00;68.40;;;;;;5086521;28;20045;-80
2022/07/20 07:12:23;;;;;;;0.00;0.00;;;25.00;69.40;;;;;;5086086;28;20128;-80
2022/07/20 07:14:49;;;;;;;0.00;0.00;;;25.10;69.70;;;;;;5053088;28;20048;-80
2022/07/20 07:17:15;;;;;;;0.10;0.10;;;25.20;69.40;;;;;;5086342;28;20094;-80
2022/07/20 07:19:41;;;;;;;0.00;0.00;;;25.30;70.20;;;;;;5069683;28;20079;-80
2022/07/20 07:22:08;;;;;;;0.30;0.00;;;25.30;68.60;;;;;;5089481;28;20052;-80
2022/07/20 07:24:34;;;;;;;0.00;0.00;;;25.30;69.00;;;;;;5039978;28;20052;-80
2022/07/20 07:27:00;;;;;;;0.00;0.00;;;25.40;68.90;;;;;;5073194;28;20044;-80
2022/07/20 07:29:26;;;;;;;0.10;0.10;;;25.40;68.20;;;;;;5090058;28;20041;-80
2022/07/20 07:31:53;;;;;;;0.00;0.00;;;25.50;68.10;;;;;;5089641;28;20052;-80
2022/07/20 07:34:19;;;;;;;0.20;0.20;;;25.60;69.40;;;;;;5072473;28;20088;-80
2022/07/20 07:36:44;;;;;;;0.50;0.10;;;25.70;69.60;;;;;;5089623;28;20170;-80
2022/07/20 07:39:10;;;;;;;0.00;0.00;;;25.80;71.40;;;;;;5072364;28;20044;-80
2022/07/20 07:41:36;;;;;;;0.00;0.00;;;25.90;71.50;;;;;;5072511;28;20056;-80
2022/07/20 07:44:02;;;;;;;0.20;0.20;;;25.90;70.80;;;;;;5055856;28;20049;-80
2022/07/20 07:46:28;;;;;;;0.25;0.00;;;26.00;70.90;;;;;;5089343;28;20055;-81
2022/07/20 07:48:54;;;;;;;0.20;0.15;;;26.10;71.00;;;;;;5072418;28;20052;-80
2022/07/20 07:51:20;;;;;;;0.10;0.10;;;26.20;72.70;;;;;;5089154;28;20484;-80
2022/07/20 07:53:45;;;;;;;0.13;0.08;;;26.20;71.60;;;;;;5071691;28;20128;-80
2022/07/20 07:56:12;;;;;;;0.00;0.00;;;26.30;73.50;;;;;;5088972;28;20041;-80
2022/07/20 07:58:38;;;;;;;1.00;0.52;;;26.30;73.60;;;;;;5088744;28;20429;-80
2022/07/20 08:01:04;;;;;;;1.23;0.50;;;26.40;75.00;;;;;;5089127;28;20056;-80
2022/07/20 08:03:30;;;;;;;0.10;0.10;;;26.50;76.00;;;;;;5072030;28;20063;-80
2022/07/20 08:05:55;;;;;;;0.20;0.20;;;26.60;75.10;;;;;;5088390;28;20116;-80
2022/07/20 08:08:21;;;;;;;0.80;0.43;;;26.60;76.50;;;;;;5088946;28;20048;-80
2022/07/20 08:10:47;;;;;;;0.17;0.17;;;26.60;76.40;;;;;;5071932;28;20056;-80
2022/07/20 08:13:12;;;;;;;3.60;0.73;;;26.70;76.70;;;;;;5088338;28;20040;-80
2022/07/20 08:15:38;;;;;;;0.98;0.35;;;26.80;77.90;;;;;;5071842;28;20053;-80
2022/07/20 08:18:04;;;;;;;0.38;0.38;;;26.90;78.30;;;;;;5054822;28;20384;-80
2022/07/20 08:20:31;;;;;;;1.40;0.40;;;26.90;78.70;;;;;;5088608;28;20393;-80
2022/07/20 08:22:56;;;;;;;1.20;0.95;;;26.90;79.10;;;;;;5088757;28;20045;-80
2022/07/20 08:25:23;;;;;;;1.30;0.68;;;26.90;80.30;;;;;;5071686;28;20057;-80
2022/07/20 08:27:49;;;;;;;1.48;1.08;;;27.00;80.60;;;;;;5088662;28;20370;-80
2022/07/20 08:30:16;;;;;;;0.52;0.40;;;27.10;82.80;;;;;;5088476;28;20041;-80
2022/07/20 08:32:42;;;;;;;1.10;1.02;;;27.10;82.20;;;;;;5087615;28;20110;-80
2022/07/20 08:35:10;;;;;;;0.43;0.40;;;27.10;83.50;;;;;;5070996;28;20045;-80
2022/07/20 08:37:37;;;;;;;1.80;0.57;;;27.20;83.00;;;;;;5088094;28;20076;-80
2022/07/20 08:40:04;;;;;;;0.65;0.52;;;27.30;83.30;;;;;;5087658;28;20049;-80
2022/07/20 08:42:30;;;;;;;1.80;1.35;;;27.30;84.70;;;;;;5071347;28;20064;-80
2022/07/20 08:44:55;;;;;;;0.10;0.10;;;27.40;83.50;;;;;;5088261;28;20511;-80
2022/07/20 08:47:25;;;;;;;0.60;0.60;;;27.40;83.70;;;;;;5087537;28;20095;-80
2022/07/20 08:49:50;;;;;;;12.13;1.55;;;27.50;84.10;;;;;;5088641;28;20127;-80
2022/07/20 08:52:17;;;;;;;0.50;0.40;;;27.50;84.50;;;;;;5037581;28;20468;-80
2022/07/20 08:54:44;;;;;;;4.47;0.95;;;27.60;84.20;;;;;;5070696;28;20088;-80
2022/07/20 08:57:15;;;;;;;0.73;0.70;;;27.70;83.70;;;;;;5087761;28;20119;-80
2022/07/20 08:59:45;;;;;;;3.00;1.00;;;27.80;84.50;;;;;;5087703;28;20091;-81
2022/07/20 09:02:11;;;;;;;3.20;0.77;;;27.80;83.30;;;;;;5087787;28;20037;-81
2022/07/20 09:05:03;;;;;;;0.65;0.65;;;27.90;84.10;;;;;;5037122;28;20416;-80
2022/07/20 09:07:44;;;;;;;1.95;0.85;;;28.00;83.20;;;;;;5036450;28;20049;-80
2022/07/20 09:10:13;;;;;;;2.97;1.75;;;28.10;84.10;;;;;;5070194;28;20044;-81
2022/07/20 09:13:01;;;;;;;0.40;0.35;;;28.20;82.30;;;;;;5070604;28;20383;-80
2022/07/20 09:15:29;;;;;;;0.88;0.88;;;28.20;80.20;;;;;;5071078;28;20045;-80
2022/07/20 09:18:07;;;;;;;0.40;0.40;;;28.30;81.40;;;;;;5087272;28;20132;-80
2022/07/20 09:20:34;;;;;;;1.13;1.10;;;28.30;81.40;;;;;;5087234;28;20484;-80
2022/07/20 09:23:06;;;;;;;1.52;0.95;;;28.40;80.70;;;;;;5087350;28;20136;-80
2022/07/20 09:25:32;;;;;;;0.47;0.47;;;28.30;80.20;;;;;;5087750;28;20103;-81
2022/07/20 09:27:58;;;;;;;1.38;0.50;;;28.40;80.70;;;;;;5087249;28;20060;-81
2022/07/20 09:30:24;;;;;;;1.05;0.80;;;28.50;80.50;;;;;;5070673;28;20051;-81
2022/07/20 09:33:01;;;;;;;3.30;1.75;;;28.40;80.20;;;;;;5087203;28;20384;-81
2022/07/20 09:35:31;;;;;;;2.50;1.67;;;28.40;79.30;;;;;;5036531;28;20440;-80
2022/07/20 09:38:00;;;;;;;1.02;0.93;;;28.50;80.10;;;;;;5087147;28;20045;-80
2022/07/20 09:40:26;;;;;;;1.92;1.10;;;28.60;80.20;;;;;;5086954;28;20036;-81
2022/07/20 09:42:55;;;;;;;1.05;0.98;;;28.70;79.60;;;;;;5069906;28;20101;-81
2022/07/20 09:45:27;;;;;;;1.88;1.27;;;28.80;79.80;;;;;;5086680;28;20067;-81
2022/07/20 09:48:11;;;;;;;0.95;0.95;;;29.00;80.10;;;;;;5086786;28;20048;-81
2022/07/20 09:50:43;;;;;;;0.52;0.52;;;29.00;77.90;;;;;;5070345;28;20527;-81
2022/07/20 09:53:10;;;;;;;7.50;2.42;;;29.10;74.00;;;;;;5069360;28;20053;-81
2022/07/20 09:55:39;;;;;;;1.25;1.25;;;29.10;72.00;;;;;;5086411;28;20068;-81
2022/07/20 09:58:06;;;;;;;2.20;1.10;;;29.10;73.20;;;;;;5086025;28;20049;-80
2022/07/20 10:00:34;;;;;;;0.65;0.32;;;29.10;73.50;;;;;;5087147;28;20056;-81
2022/07/20 10:03:01;;;;;;;2.47;1.35;;;29.20;74.00;;;;;;5086508;28;20508;-81
2022/07/20 10:05:34;;;;;;;0.63;0.63;;;29.20;72.70;;;;;;5086526;28;20409;-82
2022/07/20 10:08:06;;;;;;;1.80;0.98;;;29.30;75.20;;;;;;5070056;28;20053;-81
2022/07/20 10:10:33;;;;;;;0.80;0.63;;;29.40;72.30;;;;;;5070273;28;20102;-81
2022/07/20 10:12:59;;;;;;;0.75;0.65;;;29.50;72.10;;;;;;5086218;28;20542;-81
2022/07/20 10:15:42;;;;;;;1.05;1.05;;;29.50;74.40;;;;;;5061562;28;20041;-81
2022/07/20 10:18:09;;;;;;;1.00;1.00;;;29.60;72.20;;;;;;5016724;28;20041;-82
2022/07/20 10:20:36;;;;;;;1.00;0.82;;;29.60;70.90;;;;;;5042036;28;20053;-81
2022/07/20 10:23:14;;;;;;;0.35;0.35;;;29.60;71.20;;;;;;5035211;28;20056;-81
2022/07/20 10:25:41;;;;;;;5.70;1.08;;;29.60;72.20;;;;;;5036131;28;20052;-81
2022/07/20 10:28:34;;;;;;;1.83;0.52;;;29.60;72.90;;;;;;5052191;28;20493;-81
2022/07/20 10:31:07;;;;;;;0.65;0.65;;;29.80;72.40;;;;;;5051287;28;20037;-81
2022/07/20 10:33:36;;;;;;;0.50;0.50;;;29.90;72.70;;;;;;5063712;28;20040;-81
2022/07/20 10:38:58;;;;;;;0.20;0.15;;;30.10;70.50;;;;;;5084165;28;20175;-81
2022/07/20 10:41:33;;;;;;;0.30;0.30;;;30.20;70.00;;;;;;5049877;28;20618;-81
2022/07/20 10:44:21;;;;;;;1.63;0.98;;;30.10;70.40;;;;;;5049803;28;20041;-81
2022/07/20 10:46:49;;;;;;;0.60;0.60;;;30.10;70.50;;;;;;5045839;28;20068;-82
2022/07/20 10:49:15;;;;;;;0.75;0.35;;;30.20;70.50;;;;;;5032137;28;20049;-82
2022/07/20 10:51:41;;;;;;;0.50;0.40;;;30.10;69.90;;;;;;5073541;28;20052;-81
2022/07/20 10:54:32;;;;;;;0.32;0.30;;;30.30;69.30;;;;;;5051427;28;20451;-81
2022/07/20 10:57:03;;;;;;;0.52;0.52;;;30.40;68.60;;;;;;5089381;28;20084;-79
2022/07/20 10:59:29;;;;;;;1.75;0.95;;;30.50;70.40;;;;;;5089910;28;20448;-79
2022/07/20 11:01:55;;;;;;;0.45;0.40;;;30.60;69.10;;;;;;5056648;28;20045;-82
2022/07/20 11:04:22;;;;;;;1.40;0.40;;;30.60;67.30;;;;;;5073057;28;20156;-82
2022/07/20 11:06:48;;;;;;;2.17;0.65;;;30.60;68.70;;;;;;5072946;28;20084;-82
2022/07/20 11:09:15;;;;;;;0.35;0.35;;;30.60;67.50;;;;;;5089929;28;20053;-82
2022/07/20 11:11:42;;;;;;;0.85;0.40;;;30.50;67.20;;;;;;5089852;28;20059;-82
2022/07/20 11:14:11;;;;;;;0.68;0.68;;;30.60;67.80;;;;;;5090292;28;20045;-81
2022/07/20 11:16:38;;;;;;;0.30;0.30;;;30.60;67.30;;;;;;5089426;28;20064;-82
2022/07/20 11:19:06;;;;;;;0.20;0.13;;;30.60;68.10;;;;;;5089474;28;20059;-81
2022/07/20 11:21:34;;;;;;;0.68;0.68;;;30.70;66.60;;;;;;5039515;28;20088;-81
2022/07/20 11:24:00;;;;;;;1.08;0.30;;;30.60;66.70;;;;;;5090264;28;20044;-81
2022/07/20 11:26:26;;;;;;;0.52;0.13;;;30.70;67.30;;;;;;5072632;28;20374;-82
2022/07/20 11:28:54;;;;;;;0.20;0.20;;;30.80;66.70;;;;;;5072551;28;20064;-81
2022/07/20 11:31:26;;;;;;;0.30;0.30;;;30.80;66.80;;;;;;5089896;28;20371;-81
2022/07/20 11:33:53;;;;;;;0.08;0.08;;;30.80;66.50;;;;;;5089722;28;20147;-81
2022/07/20 11:36:26;;;;;;;0.60;0.30;;;30.80;66.80;;;;;;5072424;28;20399;-81
2022/07/20 11:38:55;;;;;;;0.20;0.20;;;30.80;67.30;;;;;;5089180;28;20465;-81
2022/07/20 11:41:23;;;;;;;0.28;0.28;;;30.90;68.00;;;;;;5089376;28;20462;-81
2022/07/20 11:43:51;;;;;;;0.70;0.50;;;31.00;67.50;;;;;;5072309;28;20045;-82
2022/07/20 11:46:23;;;;;;;0.10;0.10;;;31.00;66.00;;;;;;5089207;28;20041;-82
2022/07/20 11:49:00;;;;;;;0.52;0.47;;;31.10;67.10;;;;;;5089409;28;20052;-82
2022/07/20 11:51:27;;;;;;;0.25;0.25;;;31.10;65.80;;;;;;5089457;28;20075;-82
2022/07/20 11:53:54;;;;;;;0.93;0.52;;;31.20;66.10;;;;;;5072225;28;20102;-82
2022/07/20 11:56:22;;;;;;;0.10;0.10;;;31.20;65.10;;;;;;5071093;28;20049;-82
2022/07/20 11:58:50;;;;;;;1.77;0.85;;;31.20;65.30;;;;;;5037409;28;20515;-82
2022/07/20 12:01:25;;;;;;;0.20;0.10;;;31.20;64.20;;;;;;5070770;28;20413;-82
2022/07/20 12:03:54;;;;;;;1.90;0.95;;;31.30;65.70;;;;;;5071133;28;20048;-81
2022/07/20 12:06:20;;;;;;;0.52;0.22;;;31.40;65.30;;;;;;5087752;28;20397;-82
2022/07/20 12:09:03;;;;;;;0.65;0.65;;;31.40;64.90;;;;;;5071110;28;20041;-82
2022/07/20 12:11:28;;;;;;;0.03;0.03;;;31.50;64.70;;;;;;5087748;28;20115;-82
2022/07/20 12:13:54;;;;;;;0.73;0.32;;;31.40;63.10;;;;;;5087311;28;20086;-81
2022/07/20 12:16:20;;;;;;;1.55;0.65;;;31.40;63.60;;;;;;5070901;28;20061;-81
2022/07/20 12:18:47;;;;;;;0.08;0.08;;;31.50;64.90;;;;;;5087422;28;20481;-82
2022/07/20 12:21:21;;;;;;;0.13;0.10;;;31.40;62.90;;;;;;5087559;28;20045;-82
2022/07/20 12:23:52;;;;;;;0.10;0.10;;;31.50;64.00;;;;;;5087494;28;20044;-82
2022/07/20 12:26:31;;;;;;;0.35;0.35;;;31.60;63.20;;;;;;5070828;28;20045;-82
2022/07/20 12:29:26;;;;;;;0.10;0.10;;;31.60;63.80;;;;;;5087412;28;20127;-82
2022/07/20 12:31:59;;;;;;;0.98;0.22;;;31.70;63.50;;;;;;5070889;28;20049;-82
2022/07/20 12:34:25;;;;;;;0.10;0.10;;;31.80;62.40;;;;;;5070255;28;20045;-82
2022/07/20 12:36:51;;;;;;;0.00;0.00;;;31.80;61.30;;;;;;5070604;28;20053;-82
2022/07/20 12:39:36;;;;;;;0.00;0.00;;;31.90;60.40;;;;;;5087105;28;20055;-82
2022/07/20 12:42:18;;;;;;;0.10;0.10;;;31.80;61.70;;;;;;5070468;28;20049;-81
2022/07/20 12:44:56;;;;;;;0.10;0.08;;;31.70;60.40;;;;;;5087299;28;20053;-82
2022/07/20 12:47:25;;;;;;;0.10;0.10;;;31.70;62.10;;;;;;5070272;28;20464;-81
2022/07/20 12:49:51;;;;;;;0.20;0.20;;;31.60;60.60;;;;;;5087372;28;20045;-82
2022/07/20 12:52:16;;;;;;;0.20;0.20;;;31.60;61.30;;;;;;5087192;28;20048;-81
2022/07/20 12:54:42;;;;;;;0.10;0.10;;;31.60;62.20;;;;;;5043851;28;1239391;-82